Terminal Aerodrome Forecast
Issued by NWS

Home | Current Version | Previous Version | Text Only | Print | Product List | Glossary On
Versions: 1 2 3 4 5 6 7 8 9 10 11 12 13 14 15 16 17
140
FTUS46 KSGX 230520
TAFSNA
TAF
KSNA 230520Z 2306/2406 VRB05KT P6SM FEW010
     FM230700 VRB04KT P6SM BKN008
     FM231000 VRB03KT 5SM BR BKN005
     FM231500 VRB04KT 6SM HZ BKN008
     FM231800 22009KT P6SM FEW010 SCT250
     FM240200 VRB05KT P6SM SCT010
     FM240500 VRB04KT P6SM BKN010=

USA.gov is the U.S. government's official web portal to all federal, state and local government web resources and services.